Middleton Island, Alaska
Current Conditions -  °F | °C
As of 1:36 AM on Saturday 22 Nov 2014 (Local Time) from PAMD Reporting Station
Broken Clouds Broken Clouds  
Wind Chill: 36°   Ceiling: 3300
Heat Index: 41°   Visibility: 9mi
Dew Point: 36°   Wind: 8mph
Humidity: 81%   Direction: 100°E
Pressure: 29.03"   Gusts: NA
Location:  59.43°N, 146.33°W
Report Text: PAMD 221036Z 10007KT 9SM SCT026 BKN033 05/02 A2903 RMK AO1 P0001
Loading
Personal Weather Stations






























Interactive Weather Map New forecast layout! Learn more

10-Day Weather Forecast

Advertisements
Track Severe Weather on mobile